createdAt,value
2022-11-29T00:01:18.466Z,1.95
2022-11-29T00:03:45.083Z,1.91
2022-11-29T00:06:19.142Z,1.87
2022-11-29T00:08:46.405Z,1.85
2022-11-29T00:11:39.384Z,1.85
2022-11-29T00:14:07.587Z,1.81
2022-11-29T00:16:34.168Z,1.80
2022-11-29T00:19:00.695Z,1.77
2022-11-29T00:21:27.370Z,1.73
2022-11-29T00:23:53.767Z,1.64
2022-11-29T00:26:20.087Z,1.63
2022-11-29T00:28:46.653Z,1.59
2022-11-29T00:31:27.545Z,1.57
2022-11-29T00:33:54.186Z,1.39
2022-11-29T00:36:20.825Z,1.48
2022-11-29T00:38:47.174Z,1.54
2022-11-29T00:41:13.812Z,1.52
2022-11-29T00:43:40.427Z,1.36
2022-11-29T00:46:06.941Z,1.50
2022-11-29T00:48:33.658Z,1.48
2022-11-29T00:50:59.956Z,1.40
2022-11-29T00:53:26.392Z,1.48
2022-11-29T00:55:53.430Z,1.47
2022-11-29T00:58:21.084Z,1.50
2022-11-29T01:00:47.791Z,1.52
2022-11-29T01:03:15.619Z,1.55
2022-11-29T01:05:42.973Z,1.56
2022-11-29T01:08:10.526Z,1.57
2022-11-29T01:10:37.144Z,1.53
2022-11-29T01:13:03.908Z,1.63
2022-11-29T01:15:30.487Z,1.65
2022-11-29T01:17:57.037Z,1.66
2022-11-29T01:20:23.360Z,1.73
2022-11-29T01:22:49.746Z,1.69
2022-11-29T01:25:16.731Z,1.73
2022-11-29T01:27:43.045Z,1.76
2022-11-29T01:30:10.659Z,1.79
2022-11-29T01:32:37.515Z,1.82
2022-11-29T01:35:04.580Z,1.83
2022-11-29T01:37:31.013Z,1.85
2022-11-29T01:39:57.579Z,1.87
2022-11-29T01:42:24.220Z,1.88
2022-11-29T01:44:50.417Z,1.88
2022-11-29T01:47:18.071Z,1.87
2022-11-29T01:49:45.841Z,1.64
2022-11-29T01:52:18.128Z,1.83
2022-11-29T01:54:47.725Z,1.81
2022-11-29T01:57:14.173Z,1.75
2022-11-29T01:59:47.757Z,1.83
2022-11-29T02:02:22.596Z,1.83
2022-11-29T02:04:49.635Z,1.81
2022-11-29T02:07:16.313Z,1.76
2022-11-29T02:09:42.669Z,1.75
2022-11-29T02:12:44.427Z,1.75
2022-11-29T02:15:29.791Z,1.73
2022-11-29T02:18:21.090Z,1.73
2022-11-29T02:21:14.903Z,1.70
2022-11-29T02:24:02.435Z,1.69
2022-11-29T02:26:40.966Z,1.68
2022-11-29T02:29:07.205Z,1.72
2022-11-29T02:32:17.013Z,1.73
2022-11-29T02:35:19.669Z,1.72
2022-11-29T02:38:10.511Z,1.71
2022-11-29T02:41:24.324Z,1.66
2022-11-29T02:44:24.289Z,1.62
2022-11-29T02:47:21.552Z,1.58
2022-11-29T02:49:59.511Z,1.53
2022-11-29T02:52:47.771Z,1.53
2022-11-29T02:55:48.336Z,1.50
2022-11-29T02:58:24.493Z,1.49
2022-11-29T03:01:04.530Z,1.46
2022-11-29T03:03:42.427Z,1.33
2022-11-29T03:06:53.478Z,1.42
2022-11-29T03:09:35.323Z,1.41
2022-11-29T03:12:19.647Z,1.40
2022-11-29T03:15:35.589Z,1.37
2022-11-29T03:18:17.650Z,1.37
2022-11-29T03:21:10.313Z,1.37
2022-11-29T03:23:41.411Z,1.38
2022-11-29T03:26:27.162Z,1.36
2022-11-29T03:29:07.815Z,1.33
2022-11-29T03:31:43.071Z,1.37
2022-11-29T03:34:37.421Z,1.36
2022-11-29T03:37:13.680Z,1.35
2022-11-29T03:39:51.756Z,1.18
2022-11-29T03:42:25.129Z,1.17
2022-11-29T03:45:25.346Z,1.32
2022-11-29T03:48:11.912Z,1.30
2022-11-29T03:50:43.860Z,1.29
2022-11-29T03:53:32.082Z,1.28
2022-11-29T03:56:04.539Z,1.29
2022-11-29T03:58:47.017Z,1.26
2022-11-29T04:01:35.216Z,1.16
2022-11-29T04:04:20.292Z,1.25
2022-11-29T04:07:01.573Z,1.17
2022-11-29T04:09:34.098Z,1.16
2022-11-29T04:12:17.951Z,1.16
2022-11-29T04:15:03.440Z,1.13
2022-11-29T04:17:45.300Z,1.10
2022-11-29T04:20:17.965Z,1.11
2022-11-29T04:23:08.953Z,1.07
2022-11-29T04:26:04.753Z,1.04
2022-11-29T04:29:05.107Z,0.92
2022-11-29T04:31:58.680Z,0.81
2022-11-29T04:34:59.007Z,0.71
2022-11-29T04:37:58.328Z,0.55
2022-11-29T04:40:51.322Z,0.46
2022-11-29T04:43:39.082Z,0.23
2022-11-29T04:46:14.170Z,0.17
2022-11-29T04:48:50.750Z,0.04
2022-11-29T04:51:39.618Z,-0.06
2022-11-29T04:54:28.146Z,-0.11
2022-11-29T04:57:02.023Z,-0.19
2022-11-29T05:00:08.195Z,-0.29
2022-11-29T05:02:48.484Z,-0.33
2022-11-29T05:05:45.794Z,-0.43
2022-11-29T05:08:46.226Z,-0.46
2022-11-29T05:11:31.114Z,-0.52
2022-11-29T05:14:22.343Z,-0.63
2022-11-29T05:16:54.450Z,-0.69
2022-11-29T05:19:28.865Z,-0.73
2022-11-29T05:22:20.266Z,-0.77
2022-11-29T05:24:56.409Z,-0.81
2022-11-29T05:27:22.923Z,-0.88
2022-11-29T05:29:52.034Z,-0.91
2022-11-29T05:32:32.653Z,-1.27
2022-11-29T05:35:14.733Z,-0.98
2022-11-29T05:38:18.668Z,-0.97
2022-11-29T05:41:00.310Z,-1.01
2022-11-29T05:43:50.094Z,-1.21
2022-11-29T05:46:37.915Z,-1.08
2022-11-29T05:49:23.356Z,-1.10
2022-11-29T05:52:11.406Z,-1.06
2022-11-29T05:54:45.244Z,-1.07
2022-11-29T05:57:21.097Z,-1.12
2022-11-29T05:59:49.286Z,-1.17
2022-11-29T06:02:46.501Z,-1.11
2022-11-29T06:05:19.738Z,-1.15
2022-11-29T06:08:13.817Z,-1.02
2022-11-29T06:10:55.684Z,-1.04
2022-11-29T06:13:36.683Z,-1.09
2022-11-29T06:16:03.217Z,-1.11
2022-11-29T06:18:29.444Z,-1.08
2022-11-29T06:21:22.481Z,-1.12
2022-11-29T06:23:59.227Z,-1.25
2022-11-29T06:26:34.044Z,-1.12
2022-11-29T06:29:19.240Z,-1.11
2022-11-29T06:31:52.884Z,-1.09
2022-11-29T06:35:17.299Z,-1.49
2022-11-29T06:37:49.230Z,-0.97
2022-11-29T06:40:16.859Z,-1.31
2022-11-29T06:42:45.214Z,-0.86
2022-11-29T06:45:13.960Z,-0.89
2022-11-29T06:47:50.141Z,-0.77
2022-11-29T06:50:28.594Z,-0.78
2022-11-29T06:53:14.555Z,-0.77
2022-11-29T06:56:13.868Z,-0.67
2022-11-29T06:58:43.813Z,-0.68
2022-11-29T07:01:41.847Z,-0.66
2022-11-29T07:04:45.401Z,-0.57
2022-11-29T07:07:16.342Z,-0.48
2022-11-29T07:09:43.418Z,-0.63
2022-11-29T07:12:10.464Z,-0.34
2022-11-29T07:14:37.277Z,-0.30
2022-11-29T07:17:25.604Z,-0.51
2022-11-29T07:20:01.715Z,-0.14
2022-11-29T07:22:59.223Z,-0.11
2022-11-29T07:25:53.369Z,-0.02
2022-11-29T07:28:39.100Z,0.08
2022-11-29T07:31:07.644Z,0.17
2022-11-29T07:33:50.318Z,0.23
2022-11-29T07:36:19.693Z,0.30
2022-11-29T07:38:53.811Z,0.38
2022-11-29T07:41:27.590Z,0.45
2022-11-29T07:44:16.800Z,0.55
2022-11-29T07:46:43.590Z,0.68
2022-11-29T07:49:11.217Z,0.75
2022-11-29T07:51:37.633Z,0.50
2022-11-29T07:54:12.504Z,0.95
2022-11-29T07:56:39.207Z,1.23
2022-11-29T07:59:07.800Z,1.39
2022-11-29T08:01:34.390Z,1.51
2022-11-29T08:04:01.019Z,1.53
2022-11-29T08:06:27.348Z,2.05
2022-11-29T08:08:53.681Z,3.16
2022-11-29T08:11:20.286Z,4.59
2022-11-29T08:13:46.631Z,5.55
2022-11-29T08:16:21.466Z,6.57
2022-11-29T08:18:48.427Z,7.35
2022-11-29T08:21:18.309Z,7.99
2022-11-29T08:23:45.695Z,8.84
2022-11-29T08:26:12.583Z,9.20
2022-11-29T08:28:38.910Z,9.07
2022-11-29T08:31:08.285Z,9.50
2022-11-29T08:33:36.545Z,9.89
2022-11-29T08:36:10.056Z,10.26
2022-11-29T08:38:36.819Z,10.21
2022-11-29T08:41:03.988Z,11.08
2022-11-29T08:43:31.201Z,11.16
2022-11-29T08:46:07.617Z,11.03
2022-11-29T08:48:37.063Z,10.95
2022-11-29T08:51:05.050Z,11.29
2022-11-29T08:53:43.624Z,10.77
2022-11-29T08:57:10.068Z,11.63
2022-11-29T08:59:07.772Z,11.75
2022-11-29T09:01:34.577Z,11.67
2022-11-29T09:04:03.027Z,12.27
2022-11-29T09:06:38.194Z,12.72
2022-11-29T09:09:05.421Z,12.47
2022-11-29T09:11:33.994Z,11.67
2022-11-29T09:14:04.187Z,12.62
2022-11-29T09:16:34.156Z,12.07
2022-11-29T09:19:00.731Z,12.33
2022-11-29T09:21:28.144Z,12.43
2022-11-29T09:23:59.162Z,13.13
2022-11-29T09:26:28.045Z,11.97
2022-11-29T09:28:55.121Z,13.12
2022-11-29T09:31:22.006Z,12.93
2022-11-29T09:33:49.040Z,13.55
2022-11-29T09:36:19.360Z,13.54
2022-11-29T09:38:48.754Z,13.60
2022-11-29T09:41:27.036Z,13.39
2022-11-29T09:44:09.049Z,13.30
2022-11-29T09:47:06.271Z,13.18
2022-11-29T09:50:00.931Z,14.17
2022-11-29T09:52:37.372Z,13.82
2022-11-29T09:55:16.495Z,13.53
2022-11-29T09:57:46.705Z,14.49
2022-11-29T10:00:22.363Z,14.33
2022-11-29T10:03:31.963Z,14.45
2022-11-29T10:06:07.388Z,13.86
2022-11-29T10:08:37.550Z,14.06
2022-11-29T10:11:20.568Z,14.49
2022-11-29T10:13:52.308Z,13.84
2022-11-29T10:16:25.828Z,14.24
2022-11-29T10:19:04.236Z,13.65
2022-11-29T10:21:36.781Z,13.53
2022-11-29T10:24:09.432Z,14.53
2022-11-29T10:26:36.192Z,15.12
2022-11-29T10:29:02.941Z,13.51
2022-11-29T10:31:36.037Z,14.79
2022-11-29T10:34:13.577Z,14.92
2022-11-29T10:37:05.141Z,14.86
2022-11-29T10:39:39.666Z,14.90
2022-11-29T10:42:26.875Z,13.66
2022-11-29T10:44:53.638Z,13.29
2022-11-29T10:47:20.211Z,13.15
2022-11-29T10:49:46.577Z,13.05
2022-11-29T10:52:21.744Z,13.49
2022-11-29T10:54:49.059Z,13.46
2022-11-29T10:57:18.754Z,14.24
2022-11-29T11:00:04.833Z,13.57
2022-11-29T11:02:31.832Z,13.39
2022-11-29T11:04:58.905Z,13.12
2022-11-29T11:07:35.697Z,12.10
2022-11-29T11:10:05.784Z,12.14
2022-11-29T11:12:34.832Z,12.26
2022-11-29T11:15:31.753Z,11.93
2022-11-29T11:18:01.035Z,11.53
2022-11-29T11:20:32.551Z,11.34
2022-11-29T11:23:06.615Z,10.68
2022-11-29T11:25:39.767Z,10.44
2022-11-29T11:28:18.186Z,10.08
2022-11-29T11:31:00.550Z,10.18
2022-11-29T11:33:31.244Z,10.34
2022-11-29T11:36:07.326Z,10.61
2022-11-29T11:38:35.646Z,10.77
2022-11-29T11:41:08.041Z,10.79
2022-11-29T11:43:35.087Z,11.04
2022-11-29T11:46:02.232Z,11.10
2022-11-29T11:48:28.892Z,10.56
2022-11-29T11:50:58.262Z,11.14
2022-11-29T11:53:29.896Z,11.07
2022-11-29T11:56:01.725Z,11.43
2022-11-29T11:58:32.943Z,11.04
2022-11-29T12:01:14.794Z,10.56
2022-11-29T12:03:54.499Z,10.25
2022-11-29T12:06:51.999Z,10.29
2022-11-29T12:09:49.165Z,10.04
2022-11-29T12:12:38.499Z,9.89
2022-11-29T12:15:15.958Z,9.76
2022-11-29T12:18:16.071Z,9.25
2022-11-29T12:20:48.880Z,9.85
2022-11-29T12:23:23.834Z,9.95
2022-11-29T12:25:58.218Z,9.65
2022-11-29T12:28:35.786Z,9.43
2022-11-29T12:31:14.699Z,9.02
2022-11-29T12:34:22.249Z,8.82
2022-11-29T12:37:32.266Z,8.69
2022-11-29T12:40:20.091Z,8.31
2022-11-29T12:42:49.613Z,8.12
2022-11-29T12:45:36.720Z,7.99
2022-11-29T12:48:04.699Z,7.70
2022-11-29T12:50:52.756Z,7.57
2022-11-29T12:53:41.171Z,7.37
2022-11-29T12:56:16.245Z,7.24
2022-11-29T12:59:06.220Z,7.11
2022-11-29T13:01:57.417Z,7.00
2022-11-29T13:04:36.831Z,6.91
2022-11-29T13:07:48.935Z,6.66
2022-11-29T13:10:18.368Z,6.66
2022-11-29T13:12:50.915Z,6.58
2022-11-29T13:15:23.718Z,6.20
2022-11-29T13:17:53.277Z,6.30
2022-11-29T13:20:29.363Z,6.35
2022-11-29T13:23:11.067Z,6.18
2022-11-29T13:25:41.070Z,6.17
2022-11-29T13:28:28.847Z,6.09
2022-11-29T13:31:01.364Z,5.88
2022-11-29T13:33:39.542Z,5.91
2022-11-29T13:36:11.541Z,5.69
2022-11-29T13:39:07.835Z,5.71
2022-11-29T13:41:42.067Z,5.21
2022-11-29T13:44:32.390Z,5.56
2022-11-29T13:47:13.072Z,5.25
2022-11-29T13:49:57.057Z,5.42
2022-11-29T13:52:26.802Z,5.37
2022-11-29T13:55:05.010Z,5.26
2022-11-29T13:58:17.744Z,5.18
2022-11-29T14:00:44.587Z,5.10
2022-11-29T14:03:20.299Z,4.97
2022-11-29T14:05:48.526Z,4.88
2022-11-29T14:08:24.132Z,4.80
2022-11-29T14:10:51.046Z,4.74
2022-11-29T14:13:17.706Z,4.63
2022-11-29T14:15:44.478Z,4.53
2022-11-29T14:18:40.710Z,4.43
2022-11-29T14:21:07.871Z,4.43
2022-11-29T14:23:36.896Z,4.21
2022-11-29T14:26:03.133Z,4.21
2022-11-29T14:28:31.362Z,4.11
2022-11-29T14:31:05.365Z,4.01
2022-11-29T14:33:47.401Z,3.72
2022-11-29T14:36:23.074Z,3.80
2022-11-29T14:39:08.685Z,3.76
2022-11-29T14:41:47.443Z,3.54
2022-11-29T14:44:18.205Z,3.56
2022-11-29T14:46:45.091Z,3.32
2022-11-29T14:49:23.207Z,3.38
2022-11-29T14:52:08.339Z,3.26
2022-11-29T14:54:35.641Z,3.09
2022-11-29T14:57:41.399Z,2.78
2022-11-29T15:00:14.283Z,2.99
2022-11-29T15:02:44.863Z,2.92
2022-11-29T15:05:19.115Z,2.54
2022-11-29T15:08:02.144Z,2.72
2022-11-29T15:10:31.154Z,2.76
2022-11-29T15:12:59.415Z,2.68
2022-11-29T15:16:21.524Z,2.60
2022-11-29T15:19:13.296Z,2.53
2022-11-29T15:21:45.511Z,2.45
2022-11-29T15:24:14.459Z,2.35
2022-11-29T15:27:00.863Z,2.33
2022-11-29T15:29:29.121Z,2.21
2022-11-29T15:32:01.194Z,2.13
2022-11-29T15:34:33.128Z,2.10
2022-11-29T15:37:00.227Z,1.99
2022-11-29T15:39:27.910Z,1.95
2022-11-29T15:42:00.521Z,1.89
2022-11-29T15:44:26.843Z,1.82
2022-11-29T15:46:53.110Z,1.74
2022-11-29T15:49:25.483Z,1.69
2022-11-29T15:51:57.197Z,1.57
2022-11-29T15:54:31.309Z,1.58
2022-11-29T15:57:03.572Z,1.53
2022-11-29T15:59:45.427Z,1.54
2022-11-29T16:02:19.210Z,1.50
2022-11-29T16:04:47.437Z,1.49
2022-11-29T16:07:14.457Z,1.39
2022-11-29T16:09:44.448Z,1.33
2022-11-29T16:12:16.045Z,1.27
2022-11-29T16:14:53.359Z,1.01
2022-11-29T16:17:21.028Z,1.20
2022-11-29T16:19:47.959Z,1.19
2022-11-29T16:22:16.237Z,1.16
2022-11-29T16:25:07.895Z,1.11
2022-11-29T16:27:35.591Z,0.96
2022-11-29T16:30:02.721Z,0.95
2022-11-29T16:32:38.015Z,0.91
2022-11-29T16:35:25.547Z,0.99
2022-11-29T16:37:51.985Z,0.92
2022-11-29T16:40:26.856Z,0.92
2022-11-29T16:43:24.002Z,0.91
2022-11-29T16:46:22.717Z,0.91
2022-11-29T16:48:50.073Z,0.92
2022-11-29T16:51:23.822Z,0.86
2022-11-29T16:53:51.907Z,0.83
2022-11-29T16:56:28.220Z,0.64
2022-11-29T16:59:25.254Z,0.79
2022-11-29T17:01:42.652Z,0.75
2022-11-29T17:04:09.233Z,0.62
2022-11-29T17:06:36.483Z,0.71
2022-11-29T17:09:03.396Z,0.50
2022-11-29T17:11:30.725Z,0.65
2022-11-29T17:13:57.258Z,0.56
2022-11-29T17:16:24.637Z,0.57
2022-11-29T17:18:52.862Z,0.52
2022-11-29T17:21:24.306Z,0.49
2022-11-29T17:23:51.718Z,0.50
2022-11-29T17:26:18.617Z,0.51
2022-11-29T17:28:46.390Z,0.58
2022-11-29T17:31:21.207Z,0.40
2022-11-29T17:33:47.676Z,0.52
2022-11-29T17:36:16.702Z,0.51
2022-11-29T17:38:44.263Z,0.45
2022-11-29T17:41:18.966Z,0.37
2022-11-29T17:43:45.589Z,0.23
2022-11-29T17:46:17.568Z,0.24
2022-11-29T17:48:46.235Z,0.23
2022-11-29T17:51:50.047Z,0.20
2022-11-29T17:54:04.898Z,0.21
2022-11-29T17:56:31.743Z,0.12
2022-11-29T17:59:00.644Z,0.18
2022-11-29T18:01:28.867Z,0.16
2022-11-29T18:03:58.113Z,0.15
2022-11-29T18:06:29.581Z,0.09
2022-11-29T18:08:58.128Z,-0.17
2022-11-29T18:11:27.673Z,0.10
2022-11-29T18:13:55.310Z,0.12
2022-11-29T18:16:27.288Z,0.07
2022-11-29T18:18:58.403Z,-0.05
2022-11-29T18:21:24.982Z,-0.06
2022-11-29T18:23:51.357Z,-0.02
2022-11-29T18:26:20.095Z,-0.09
2022-11-29T18:28:47.247Z,-0.04
2022-11-29T18:31:15.869Z,-0.07
2022-11-29T18:33:43.417Z,-0.07
2022-11-29T18:36:15.731Z,-0.20
2022-11-29T18:38:43.407Z,-0.08
2022-11-29T18:41:18.874Z,-0.18
2022-11-29T18:43:45.953Z,-0.15
2022-11-29T18:46:14.453Z,-0.20
2022-11-29T18:48:41.909Z,-0.23
2022-11-29T18:51:11.352Z,-0.30
2022-11-29T18:53:39.184Z,-0.17
2022-11-29T18:56:10.259Z,-0.23
2022-11-29T18:58:36.769Z,-0.28
2022-11-29T19:01:08.935Z,-0.36
2022-11-29T19:03:39.972Z,-0.35
2022-11-29T19:06:08.866Z,-0.37
2022-11-29T19:08:35.583Z,-0.39
2022-11-29T19:11:12.504Z,-0.41
2022-11-29T19:13:39.446Z,-0.40
2022-11-29T19:16:08.317Z,-0.41
2022-11-29T19:18:35.109Z,-0.44
2022-11-29T19:21:12.932Z,-0.50
2022-11-29T19:23:39.832Z,-0.51
2022-11-29T19:26:08.414Z,-0.54
2022-11-29T19:28:36.677Z,-0.56
2022-11-29T19:31:05.301Z,-0.55
2022-11-29T19:33:33.755Z,-0.58
2022-11-29T19:36:07.361Z,-0.66
2022-11-29T19:38:36.862Z,-0.62
2022-11-29T19:41:11.162Z,-0.66
2022-11-29T19:43:38.366Z,-0.63
2022-11-29T19:46:09.592Z,-0.64
2022-11-29T19:48:35.962Z,-0.63
2022-11-29T19:51:03.492Z,-0.64
2022-11-29T19:53:30.004Z,-0.65
2022-11-29T19:55:56.644Z,-0.68
2022-11-29T19:58:23.384Z,-0.66
2022-11-29T20:00:49.677Z,-0.67
2022-11-29T20:03:16.342Z,-0.73
2022-11-29T20:05:42.673Z,-0.77
2022-11-29T20:08:08.948Z,-0.59
2022-11-29T20:10:35.575Z,-0.56
2022-11-29T20:17:30.312Z,-0.56
2022-11-29T20:19:56.960Z,-0.60
2022-11-29T20:22:23.276Z,-0.66
2022-11-29T20:24:49.536Z,-0.59
2022-11-29T20:27:16.083Z,-0.63
2022-11-29T20:29:42.389Z,-0.73
2022-11-29T20:32:08.734Z,-0.62
2022-11-29T20:34:35.566Z,-0.62
2022-11-29T20:37:39.605Z,-0.65
2022-11-29T20:40:13.456Z,-0.76
2022-11-29T20:42:52.643Z,-0.77
2022-11-29T20:45:19.636Z,-0.77
2022-11-29T20:47:50.767Z,-0.79
2022-11-29T20:50:23.195Z,-0.84
2022-11-29T20:52:53.401Z,-0.84
2022-11-29T20:55:20.755Z,-0.88
2022-11-29T20:57:47.085Z,-0.96
2022-11-29T21:00:15.157Z,-0.98
2022-11-29T21:02:42.299Z,-0.96
2022-11-29T21:05:08.768Z,-0.95
2022-11-29T21:07:35.822Z,-0.78
2022-11-29T21:10:02.282Z,-0.69
2022-11-29T21:12:29.885Z,-0.61
2022-11-29T21:14:57.159Z,-0.59
2022-11-29T21:17:26.452Z,-0.66
2022-11-29T21:19:57.190Z,-0.71
2022-11-29T21:22:40.785Z,-0.65
2022-11-29T21:25:19.292Z,-0.61
2022-11-29T21:27:45.836Z,-0.54
2022-11-29T21:30:19.166Z,-0.64
2022-11-29T21:32:46.131Z,-0.80
2022-11-29T21:35:13.759Z,-0.76
2022-11-29T21:37:40.196Z,-0.85
2022-11-29T21:40:07.703Z,-0.90
2022-11-29T21:42:34.356Z,-0.84
2022-11-29T21:45:00.620Z,-0.89
2022-11-29T21:47:26.909Z,-0.97
2022-11-29T21:49:54.835Z,-1.21
2022-11-29T21:52:22.950Z,-1.23
2022-11-29T21:54:49.915Z,-1.20
2022-11-29T21:57:16.623Z,-1.27
2022-11-29T21:59:42.974Z,-1.19
2022-11-29T22:02:09.347Z,-1.10
2022-11-29T22:04:36.088Z,-1.14
2022-11-29T22:07:02.397Z,-1.22
2022-11-29T22:09:28.709Z,-1.26
2022-11-29T22:11:56.325Z,-1.21
2022-11-29T22:14:23.837Z,-1.19
2022-11-29T22:16:54.658Z,-1.14
2022-11-29T22:19:32.011Z,-1.23
2022-11-29T22:22:00.167Z,-1.17
2022-11-29T22:24:28.776Z,-1.14
2022-11-29T22:26:55.692Z,-1.24
2022-11-29T22:29:22.922Z,-0.93
2022-11-29T22:31:52.815Z,-0.98
2022-11-29T22:34:19.954Z,-1.06
2022-11-29T22:36:46.377Z,-1.35
2022-11-29T22:39:13.031Z,-1.25
2022-11-29T22:41:40.074Z,-1.30
2022-11-29T22:44:06.634Z,-1.24
2022-11-29T22:46:35.489Z,-1.23
2022-11-29T22:49:03.161Z,-1.22
2022-11-29T22:51:31.613Z,-1.22
2022-11-29T22:54:00.522Z,-1.24
2022-11-29T22:56:32.984Z,-1.31
2022-11-29T22:59:00.029Z,-1.32
2022-11-29T23:01:28.552Z,-1.36
2022-11-29T23:03:56.901Z,-1.36
2022-11-29T23:06:26.078Z,-1.41
2022-11-29T23:08:53.894Z,-1.39
2022-11-29T23:11:23.365Z,-1.39
2022-11-29T23:13:50.327Z,-1.35
2022-11-29T23:16:18.839Z,-1.37
2022-11-29T23:18:48.071Z,-1.38
2022-11-29T23:21:15.632Z,-1.36
2022-11-29T23:23:42.549Z,-1.36
2022-11-29T23:26:09.753Z,-1.36
2022-11-29T23:28:36.404Z,-1.33
2022-11-29T23:31:02.706Z,-1.39
2022-11-29T23:33:29.004Z,-1.41
2022-11-29T23:36:04.461Z,-1.47
2022-11-29T23:38:30.967Z,-1.45
2022-11-29T23:40:57.625Z,-1.56
2022-11-29T23:43:24.037Z,-1.69
2022-11-29T23:45:50.509Z,-1.51
2022-11-29T23:48:17.146Z,-1.46
2022-11-29T23:50:43.816Z,-1.52
2022-11-29T23:53:14.162Z,-1.53
2022-11-29T23:55:41.172Z,-1.51
2022-11-29T23:58:07.544Z,-1.70
